createdAt,value
2019-04-11T00:01:18.351Z,99.90
2019-04-11T00:03:49.361Z,99.90
2019-04-11T00:06:19.548Z,99.90
2019-04-11T00:08:50.154Z,99.90
2019-04-11T00:11:20.312Z,99.90
2019-04-11T00:13:51.467Z,99.90
2019-04-11T00:16:21.892Z,99.90
2019-04-11T00:18:53.228Z,99.90
2019-04-11T00:21:23.146Z,99.90
2019-04-11T00:23:52.529Z,99.90
2019-04-11T00:26:22.693Z,99.90
2019-04-11T00:28:52.088Z,99.90
2019-04-11T00:31:21.475Z,99.90
2019-04-11T00:33:51.838Z,99.90
2019-04-11T00:36:24.217Z,99.90
2019-04-11T00:38:55.178Z,99.90
2019-04-11T00:41:25.977Z,99.90
2019-04-11T00:43:56.687Z,99.90
2019-04-11T00:46:26.606Z,99.90
2019-04-11T00:48:57.710Z,99.90
2019-04-11T00:51:29.840Z,99.90
2019-04-11T00:54:00.576Z,99.90
2019-04-11T00:56:30.457Z,99.90
2019-04-11T00:59:02.363Z,99.90
2019-04-11T01:01:35.709Z,99.90
2019-04-11T01:04:05.413Z,99.90
2019-04-11T01:06:36.497Z,99.90
2019-04-11T01:09:08.301Z,99.90
2019-04-11T01:11:40.394Z,99.90
2019-04-11T01:14:10.312Z,99.90
2019-04-11T01:16:50.932Z,99.90
2019-04-11T01:19:20.531Z,99.90
2019-04-11T01:21:51.509Z,99.90
2019-04-11T01:24:23.927Z,99.90
2019-04-11T01:26:53.872Z,99.90
2019-04-11T01:29:27.227Z,99.90
2019-04-11T01:32:02.267Z,99.90
2019-04-11T01:34:32.810Z,99.90
2019-04-11T01:37:03.793Z,99.90
2019-04-11T01:40:11.791Z,99.90
2019-04-11T01:42:41.807Z,99.90
2019-04-11T01:45:13.514Z,99.90
2019-04-11T01:48:04.418Z,99.90
2019-04-11T01:50:35.324Z,99.90
2019-04-11T01:53:05.178Z,99.90
2019-04-11T01:55:36.649Z,99.90
2019-04-11T01:58:07.020Z,99.90
2019-04-11T02:00:56.813Z,99.90
2019-04-11T02:03:41.749Z,99.90
2019-04-11T02:06:11.825Z,99.90
2019-04-11T02:08:41.777Z,99.90
2019-04-11T02:11:12.940Z,99.90
2019-04-11T02:13:43.829Z,99.90
2019-04-11T02:16:13.246Z,99.90
2019-04-11T02:18:43.610Z,99.90
2019-04-11T02:21:13.611Z,99.90
2019-04-11T02:23:55.182Z,99.90
2019-04-11T02:26:29.278Z,99.90
2019-04-11T02:28:59.353Z,99.90
2019-04-11T02:31:30.628Z,99.90
2019-04-11T02:34:01.996Z,99.90
2019-04-11T02:36:32.213Z,99.90
2019-04-11T02:39:08.032Z,99.90
2019-04-11T02:41:35.751Z,99.90
2019-04-11T02:44:11.767Z,99.90
2019-04-11T02:46:47.883Z,99.90
2019-04-11T02:49:10.263Z,99.90
2019-04-11T02:51:40.204Z,99.90
2019-04-11T02:54:11.502Z,99.90
2019-04-11T02:56:43.586Z,99.90
2019-04-11T02:59:13.466Z,99.90
2019-04-11T03:01:43.993Z,99.90
2019-04-11T03:04:14.856Z,99.90
2019-04-11T03:06:47.786Z,99.90
2019-04-11T03:09:22.054Z,99.90
2019-04-11T03:11:52.649Z,99.90
2019-04-11T03:14:23.320Z,99.90
2019-04-11T03:17:03.681Z,99.90
2019-04-11T03:19:42.394Z,99.90
2019-04-11T03:21:57.160Z,99.90
2019-04-11T03:24:29.469Z,99.90
2019-04-11T03:27:04.118Z,99.90
2019-04-11T03:29:33.342Z,99.90
2019-04-11T03:32:42.061Z,99.90
2019-04-11T03:37:26.088Z,99.90
2019-04-11T03:40:02.434Z,99.90
2019-04-11T03:42:29.239Z,99.90
2019-04-11T03:44:47.294Z,99.90
2019-04-11T03:47:27.821Z,99.90
2019-04-11T03:49:51.840Z,99.90
2019-04-11T03:52:21.418Z,99.90
2019-04-11T03:54:51.671Z,99.90
2019-04-11T03:57:21.595Z,99.90
2019-04-11T03:59:52.033Z,99.90
2019-04-11T04:02:24.569Z,99.90
2019-04-11T04:04:54.711Z,99.90
2019-04-11T04:07:27.735Z,99.90
2019-04-11T04:09:58.617Z,99.90
2019-04-11T04:12:29.387Z,99.90
2019-04-11T04:15:29.939Z,99.90
2019-04-11T04:20:59.752Z,99.90
2019-04-11T04:23:33.685Z,99.90
2019-04-11T04:26:06.217Z,99.90
2019-04-11T04:28:35.746Z,99.90
2019-04-11T04:31:09.134Z,99.90
2019-04-11T04:33:40.024Z,99.90
2019-04-11T04:36:10.892Z,99.90
2019-04-11T04:38:44.584Z,99.90
2019-04-11T04:41:27.933Z,99.90
2019-04-11T04:43:48.416Z,99.90
2019-04-11T04:46:34.467Z,99.90
2019-04-11T04:48:51.405Z,99.90
2019-04-11T04:51:24.245Z,99.90
2019-04-11T04:53:53.268Z,99.90
2019-04-11T04:56:28.396Z,99.90
2019-04-11T04:58:55.966Z,99.90
2019-04-11T05:01:26.581Z,99.90
2019-04-11T05:03:58.170Z,99.90
2019-04-11T05:06:29.146Z,99.90
2019-04-11T05:09:00.046Z,99.90
2019-04-11T05:11:30.684Z,99.90
2019-04-11T05:14:01.031Z,99.90
2019-04-11T05:16:31.521Z,99.90
2019-04-11T05:19:01.125Z,99.90
2019-04-11T05:21:31.602Z,99.90
2019-04-11T05:24:02.035Z,99.90
2019-04-11T05:26:31.489Z,99.90
2019-04-11T05:29:00.880Z,99.90
2019-04-11T05:31:32.259Z,99.90
2019-04-11T05:34:01.651Z,99.90
2019-04-11T05:36:32.148Z,99.90
2019-04-11T05:39:02.558Z,99.90
2019-04-11T05:41:33.825Z,99.90
2019-04-11T05:44:09.789Z,99.90
2019-04-11T05:46:49.158Z,99.90
2019-04-11T05:49:14.663Z,99.90
2019-04-11T05:52:00.493Z,99.90
2019-04-11T05:54:38.824Z,99.90
2019-04-11T05:57:07.327Z,99.90
2019-04-11T05:59:39.015Z,99.90
2019-04-11T06:02:45.688Z,99.90
2019-04-11T06:05:43.119Z,99.90
2019-04-11T06:08:21.116Z,99.90
2019-04-11T06:11:09.481Z,99.90
2019-04-11T06:14:05.753Z,99.90
2019-04-11T06:16:43.587Z,99.90
2019-04-11T06:19:30.490Z,99.90
2019-04-11T06:22:04.453Z,99.90
2019-04-11T06:24:52.362Z,99.90
2019-04-11T06:27:53.580Z,99.90
2019-04-11T06:30:40.818Z,99.90
2019-04-11T06:33:24.653Z,99.90
2019-04-11T06:36:26.655Z,99.90
2019-04-11T06:39:15.887Z,99.90
2019-04-11T06:42:13.365Z,99.90
2019-04-11T06:45:02.211Z,99.90
2019-04-11T06:47:53.449Z,99.90
2019-04-11T06:50:29.317Z,99.90
2019-04-11T06:53:00.225Z,99.90
2019-04-11T06:55:50.908Z,99.90
2019-04-11T06:58:29.779Z,99.90
2019-04-11T07:01:06.484Z,99.90
2019-04-11T07:03:42.295Z,99.90
2019-04-11T07:06:18.012Z,99.90
2019-04-11T07:08:59.035Z,99.90
2019-04-11T07:11:38.420Z,99.90
2019-04-11T07:14:22.455Z,99.90
2019-04-11T07:17:13.443Z,99.90
2019-04-11T07:20:02.456Z,99.90
2019-04-11T07:22:50.885Z,99.90
2019-04-11T07:25:52.163Z,99.90
2019-04-11T07:28:46.596Z,99.90
2019-04-11T07:31:48.343Z,99.90
2019-04-11T07:34:39.224Z,99.90
2019-04-11T07:37:26.349Z,99.90
2019-04-11T07:40:24.205Z,99.90
2019-04-11T07:43:19.912Z,99.90
2019-04-11T07:46:24.975Z,99.90
2019-04-11T07:49:02.245Z,99.90
2019-04-11T07:51:36.504Z,99.90
2019-04-11T07:54:09.294Z,99.90
2019-04-11T07:57:04.019Z,99.90
2019-04-11T07:59:53.371Z,99.90
2019-04-11T08:02:41.898Z,99.90
2019-04-11T08:05:30.605Z,99.90
2019-04-11T08:08:25.751Z,99.90
2019-04-11T08:11:03.014Z,99.90
2019-04-11T08:13:38.809Z,99.90
2019-04-11T08:16:28.941Z,99.90
2019-04-11T08:19:26.849Z,99.90
2019-04-11T08:22:16.921Z,99.90
2019-04-11T08:24:56.505Z,99.90
2019-04-11T08:27:48.470Z,99.90
2019-04-11T08:30:08.713Z,99.90
2019-04-11T08:32:56.314Z,99.90
2019-04-11T08:35:53.439Z,99.90
2019-04-11T08:38:32.185Z,99.90
2019-04-11T08:41:42.038Z,99.90
2019-04-11T08:44:19.852Z,99.90
2019-04-11T08:46:54.166Z,99.90
2019-04-11T08:49:32.195Z,99.90
2019-04-11T08:52:08.219Z,99.90
2019-04-11T08:54:55.713Z,99.90
2019-04-11T08:57:42.606Z,99.90
2019-04-11T09:00:49.086Z,99.50
2019-04-11T09:03:31.531Z,97.60
2019-04-11T09:06:16.702Z,97.30
2019-04-11T09:09:11.175Z,97.60
2019-04-11T09:12:06.990Z,96.40
2019-04-11T09:15:02.535Z,96.20
2019-04-11T09:17:36.663Z,96.40
2019-04-11T09:20:41.564Z,97.40
2019-04-11T09:23:13.689Z,97.30
2019-04-11T09:26:01.730Z,97.30
2019-04-11T09:28:49.825Z,97.70
2019-04-11T09:31:41.973Z,97.70
2019-04-11T09:34:33.606Z,97.80
2019-04-11T09:37:35.839Z,97.90
2019-04-11T09:40:26.602Z,98.10
2019-04-11T09:43:16.274Z,98.40
2019-04-11T09:46:12.380Z,99.30
2019-04-11T09:48:53.582Z,99.50
2019-04-11T09:51:52.005Z,99.70
2019-04-11T09:54:37.788Z,99.70
2019-04-11T09:57:24.760Z,99.40
2019-04-11T10:00:22.926Z,99.00
2019-04-11T10:03:11.668Z,98.80
2019-04-11T10:05:50.312Z,99.10
2019-04-11T10:08:43.652Z,99.30
2019-04-11T10:11:36.335Z,99.50
2019-04-11T10:14:15.575Z,99.70
2019-04-11T10:17:04.548Z,99.90
2019-04-11T10:19:58.554Z,99.90
2019-04-11T10:22:45.945Z,99.90
2019-04-11T10:25:28.432Z,99.90
2019-04-11T10:28:19.998Z,99.90
2019-04-11T10:31:10.667Z,99.90
2019-04-11T10:34:09.520Z,99.90
2019-04-11T10:36:53.669Z,99.90
2019-04-11T10:39:54.106Z,99.60
2019-04-11T10:42:26.640Z,99.90
2019-04-11T10:45:25.046Z,99.60
2019-04-11T10:48:09.629Z,99.30
2019-04-11T10:51:04.573Z,99.00
2019-04-11T10:53:35.381Z,99.10
2019-04-11T10:56:26.362Z,99.30
2019-04-11T10:58:57.968Z,98.70
2019-04-11T11:02:00.280Z,98.20
2019-04-11T11:04:48.561Z,98.00
2019-04-11T11:07:21.615Z,97.80
2019-04-11T11:09:58.965Z,97.80
2019-04-11T11:12:54.766Z,97.30
2019-04-11T11:15:27.508Z,98.10
2019-04-11T11:19:07.517Z,98.50
2019-04-11T11:21:02.605Z,99.10
2019-04-11T11:24:05.457Z,98.90
2019-04-11T11:26:35.572Z,98.50
2019-04-11T11:29:24.315Z,98.50
2019-04-11T11:32:03.178Z,98.30
2019-04-11T11:34:40.991Z,98.00
2019-04-11T11:37:29.164Z,97.20
2019-04-11T11:40:17.976Z,97.80
2019-04-11T11:43:06.544Z,98.10
2019-04-11T11:46:04.435Z,98.30
2019-04-11T11:48:52.229Z,98.50
2019-04-11T11:51:29.247Z,98.20
2019-04-11T11:54:05.159Z,98.90
2019-04-11T11:56:38.119Z,98.70
2019-04-11T11:59:18.316Z,99.30
2019-04-11T12:01:52.749Z,99.30
2019-04-11T12:04:42.237Z,99.50
2019-04-11T12:07:14.419Z,99.90
2019-04-11T12:10:13.248Z,99.70
2019-04-11T12:13:05.862Z,99.90
2019-04-11T12:15:53.236Z,99.90
2019-04-11T12:18:48.603Z,99.90
2019-04-11T12:21:26.046Z,99.90
2019-04-11T12:24:13.459Z,99.90
2019-04-11T12:26:51.778Z,99.90
2019-04-11T12:29:49.020Z,99.90
2019-04-11T12:32:22.422Z,99.90
2019-04-11T12:35:21.939Z,99.90
2019-04-11T12:37:57.853Z,99.80
2019-04-11T12:40:45.355Z,99.50
2019-04-11T12:43:15.844Z,99.50
2019-04-11T12:46:03.007Z,99.20
2019-04-11T12:48:37.855Z,99.10
2019-04-11T12:51:36.870Z,98.80
2019-04-11T12:54:22.125Z,98.50
2019-04-11T12:57:16.264Z,97.90
2019-04-11T12:59:46.681Z,97.80
2019-04-11T13:02:36.432Z,97.70
2019-04-11T13:05:09.718Z,97.90
2019-04-11T13:08:06.996Z,97.90
2019-04-11T13:10:39.622Z,97.80
2019-04-11T13:13:27.985Z,98.20
2019-04-11T13:16:12.325Z,97.70
2019-04-11T13:19:04.244Z,97.60
2019-04-11T13:22:02.536Z,97.70
2019-04-11T13:24:50.874Z,97.70
2019-04-11T13:27:30.168Z,97.20
2019-04-11T13:30:20.704Z,96.30
2019-04-11T13:33:01.753Z,96.50
2019-04-11T13:35:56.109Z,96.40
2019-04-11T13:38:30.378Z,96.20
2019-04-11T13:41:20.370Z,95.80
2019-04-11T13:44:23.271Z,95.70
2019-04-11T13:47:25.712Z,96.00
2019-04-11T13:49:57.759Z,95.60
2019-04-11T13:52:46.814Z,95.60
2019-04-11T13:55:27.966Z,95.20
2019-04-11T13:58:17.779Z,94.70
2019-04-11T14:00:51.552Z,95.40
2019-04-11T14:03:49.987Z,95.50
2019-04-11T14:06:31.799Z,95.10
2019-04-11T14:09:22.977Z,95.30
2019-04-11T14:12:04.741Z,94.80
2019-04-11T14:14:56.423Z,94.40
2019-04-11T14:17:44.238Z,94.60
2019-04-11T14:20:29.460Z,95.00
2019-04-11T14:23:24.460Z,95.40
2019-04-11T14:26:15.089Z,95.60
2019-04-11T14:29:09.617Z,95.60
2019-04-11T14:31:54.716Z,95.90
2019-04-11T14:34:42.356Z,96.30
2019-04-11T14:37:38.073Z,96.30
2019-04-11T14:40:11.414Z,96.70
2019-04-11T14:43:02.887Z,96.40
2019-04-11T14:45:55.885Z,96.30
2019-04-11T14:48:42.556Z,96.20
2019-04-11T14:51:43.990Z,96.40
2019-04-11T14:54:19.560Z,96.70
2019-04-11T14:56:56.950Z,96.80
2019-04-11T14:59:34.508Z,96.80
2019-04-11T15:02:27.650Z,96.70
2019-04-11T15:05:13.812Z,96.90
2019-04-11T15:07:46.085Z,97.40
2019-04-11T15:10:39.145Z,97.20
2019-04-11T15:13:09.968Z,97.30
2019-04-11T15:15:58.469Z,97.60
2019-04-11T15:18:31.544Z,97.30
2019-04-11T15:21:21.571Z,98.00
2019-04-11T15:23:53.807Z,97.80
2019-04-11T15:26:57.109Z,98.10
2019-04-11T15:29:30.544Z,98.20
2019-04-11T15:32:17.835Z,98.30
2019-04-11T15:34:53.216Z,98.50
2019-04-11T15:37:47.508Z,98.60
2019-04-11T15:40:29.144Z,98.60
2019-04-11T15:43:17.253Z,99.10
2019-04-11T15:45:57.640Z,99.20
2019-04-11T15:49:01.358Z,99.40
2019-04-11T15:51:38.255Z,99.30
2019-04-11T15:54:27.248Z,99.80
2019-04-11T15:57:28.171Z,99.60
2019-04-11T16:00:16.687Z,99.90
2019-04-11T16:02:49.549Z,99.70
2019-04-11T16:05:49.810Z,99.90
2019-04-11T16:08:44.485Z,99.80
2019-04-11T16:11:42.223Z,99.60
2019-04-11T16:14:19.825Z,99.40
2019-04-11T16:17:13.850Z,99.50
2019-04-11T16:19:54.796Z,99.70
2019-04-11T16:22:43.394Z,99.90
2019-04-11T16:25:18.197Z,99.90
2019-04-11T16:28:07.795Z,99.90
2019-04-11T16:31:02.217Z,99.90
2019-04-11T16:33:54.556Z,99.90
2019-04-11T16:36:43.403Z,99.90
2019-04-11T16:39:33.070Z,99.90
2019-04-11T16:42:13.944Z,99.90
2019-04-11T16:45:01.738Z,99.90
2019-04-11T16:47:59.541Z,99.90
2019-04-11T16:50:30.110Z,99.90
2019-04-11T16:53:01.392Z,99.90
2019-04-11T16:55:33.379Z,99.90
2019-04-11T16:58:05.363Z,99.90
2019-04-11T17:00:38.461Z,99.90
2019-04-11T17:03:10.166Z,99.90
2019-04-11T17:05:43.011Z,99.90
2019-04-11T17:08:32.513Z,99.90
2019-04-11T17:11:12.807Z,99.90
2019-04-11T17:13:42.260Z,99.90
2019-04-11T17:16:13.504Z,99.90
2019-04-11T17:18:43.169Z,99.90
2019-04-11T17:21:12.552Z,99.90
2019-04-11T17:23:41.996Z,99.90
2019-04-11T17:26:11.970Z,99.90
2019-04-11T17:28:43.347Z,99.90
2019-04-11T17:31:12.399Z,99.90
2019-04-11T17:33:42.068Z,99.90
2019-04-11T17:36:12.243Z,99.90
2019-04-11T17:38:41.934Z,99.90
2019-04-11T17:41:12.113Z,99.90
2019-04-11T17:43:46.786Z,99.90
2019-04-11T17:46:16.607Z,99.90
2019-04-11T17:48:46.260Z,99.90
2019-04-11T17:51:16.215Z,99.90
2019-04-11T17:53:45.672Z,99.90
2019-04-11T17:56:16.877Z,99.90
2019-04-11T17:58:46.196Z,99.90
2019-04-11T18:01:16.325Z,99.90
2019-04-11T18:03:46.284Z,99.90
2019-04-11T18:06:17.213Z,99.90
2019-04-11T18:08:51.319Z,99.90
2019-04-11T18:11:18.532Z,99.90
2019-04-11T18:13:47.918Z,99.70
2019-04-11T18:16:18.570Z,99.70
2019-04-11T18:18:47.956Z,99.70
2019-04-11T18:21:18.137Z,99.60
2019-04-11T18:23:49.888Z,99.90
2019-04-11T18:26:19.044Z,99.90
2019-04-11T18:28:51.826Z,99.90
2019-04-11T18:31:24.752Z,99.90
2019-04-11T18:33:51.750Z,99.90
2019-04-11T18:36:21.133Z,99.90
2019-04-11T18:38:50.524Z,99.90
2019-04-11T18:41:20.041Z,99.50
2019-04-11T18:43:53.110Z,99.50
2019-04-11T18:46:22.547Z,99.70
2019-04-11T18:48:54.514Z,99.50
2019-04-11T18:51:23.813Z,99.70
2019-04-11T18:53:53.219Z,99.30
2019-04-11T18:56:22.646Z,99.20
2019-04-11T18:58:52.266Z,99.10
2019-04-11T19:01:21.760Z,99.00
2019-04-11T19:03:51.165Z,98.80
2019-04-11T19:06:27.820Z,98.90
2019-04-11T19:08:51.652Z,98.90
2019-04-11T19:11:21.192Z,98.60
2019-04-11T19:13:55.780Z,98.70
2019-04-11T19:16:25.551Z,98.40
2019-04-11T19:18:54.889Z,98.30
2019-04-11T19:21:24.481Z,98.20
2019-04-11T19:23:54.731Z,98.30
2019-04-11T19:26:24.246Z,98.50
2019-04-11T19:28:55.235Z,98.40
2019-04-11T19:31:27.467Z,98.10
2019-04-11T19:33:56.465Z,98.00
2019-04-11T19:36:26.277Z,98.10
2019-04-11T19:38:55.969Z,97.70
2019-04-11T19:41:25.542Z,97.80
2019-04-11T19:43:54.966Z,97.80
2019-04-11T19:46:25.237Z,97.90
2019-04-11T19:48:57.068Z,98.10
2019-04-11T19:51:28.513Z,97.90
2019-04-11T19:53:57.118Z,97.90
2019-04-11T19:56:34.622Z,98.00
2019-04-11T19:59:04.573Z,98.20
2019-04-11T20:01:34.062Z,98.10
2019-04-11T20:04:05.712Z,98.20
2019-04-11T20:06:35.128Z,98.00
2019-04-11T20:09:06.351Z,98.30
2019-04-11T20:11:36.483Z,98.70
2019-04-11T20:14:07.903Z,98.60
2019-04-11T20:16:42.045Z,98.20
2019-04-11T20:19:11.484Z,98.20
2019-04-11T20:21:40.821Z,98.50
2019-04-11T20:24:14.118Z,98.50
2019-04-11T20:26:41.792Z,98.50
2019-04-11T20:29:11.194Z,98.40
2019-04-11T20:31:40.571Z,98.70
2019-04-11T20:34:10.013Z,98.50
2019-04-11T20:36:41.296Z,98.70
2019-04-11T20:39:14.962Z,98.80
2019-04-11T20:41:42.716Z,98.80
2019-04-11T20:44:12.142Z,98.70
2019-04-11T20:46:41.676Z,98.70
2019-04-11T20:49:12.180Z,98.70
2019-04-11T20:51:42.213Z,98.80
2019-04-11T20:54:12.135Z,98.80
2019-04-11T20:56:42.191Z,99.10
2019-04-11T20:59:12.495Z,99.30
2019-04-11T21:01:41.886Z,99.20
2019-04-11T21:04:14.689Z,99.20
2019-04-11T21:06:44.281Z,99.10
2019-04-11T21:09:14.680Z,99.10
2019-04-11T21:11:48.089Z,99.10
2019-04-11T21:14:18.030Z,99.10
2019-04-11T21:16:47.424Z,99.30
2019-04-11T21:19:20.409Z,99.70
2019-04-11T21:21:49.817Z,99.60
2019-04-11T21:24:19.184Z,99.40
2019-04-11T21:26:52.246Z,99.70
2019-04-11T21:29:22.383Z,99.80
2019-04-11T21:31:51.711Z,99.70
2019-04-11T21:34:23.441Z,99.70
2019-04-11T21:36:52.781Z,99.70
2019-04-11T21:39:23.207Z,99.70
2019-04-11T21:41:53.427Z,99.70
2019-04-11T21:44:23.743Z,99.90
2019-04-11T21:46:53.664Z,99.90
2019-04-11T21:49:25.452Z,99.90
2019-04-11T21:51:55.080Z,99.90
2019-04-11T21:54:24.444Z,99.90
2019-04-11T21:56:54.148Z,99.90
2019-04-11T21:59:23.571Z,99.90
2019-04-11T22:01:54.133Z,99.90
2019-04-11T22:04:26.949Z,99.90
2019-04-11T22:07:00.677Z,99.90
2019-04-11T22:09:28.465Z,99.90
2019-04-11T22:11:58.960Z,99.90
2019-04-11T22:14:28.373Z,99.90
2019-04-11T22:17:00.125Z,99.90
2019-04-11T22:19:29.559Z,99.90
2019-04-11T22:21:58.948Z,99.90
2019-04-11T22:24:28.353Z,99.90
2019-04-11T22:26:57.981Z,99.90
2019-04-11T22:29:27.467Z,99.90
2019-04-11T22:31:56.932Z,99.90
2019-04-11T22:34:37.128Z,99.90
2019-04-11T22:37:07.327Z,99.90
2019-04-11T22:39:36.625Z,99.90
2019-04-11T22:42:07.252Z,99.90
2019-04-11T22:44:38.640Z,99.90
2019-04-11T22:47:08.663Z,99.90
2019-04-11T22:49:39.472Z,99.90
2019-04-11T22:52:11.392Z,99.90
2019-04-11T22:54:42.052Z,99.90
2019-04-11T22:57:12.963Z,99.90
2019-04-11T22:59:45.048Z,99.90
2019-04-11T23:02:24.398Z,99.90
2019-04-11T23:04:54.893Z,99.90
2019-04-11T23:07:25.468Z,99.90
2019-04-11T23:09:55.426Z,99.90
2019-04-11T23:12:24.852Z,99.90
2019-04-11T23:14:55.063Z,99.90
2019-04-11T23:17:24.404Z,99.90
2019-04-11T23:19:59.986Z,99.90
2019-04-11T23:22:29.862Z,99.90
2019-04-11T23:24:59.869Z,99.90
2019-04-11T23:27:29.632Z,99.90
2019-04-11T23:30:00.010Z,99.90
2019-04-11T23:32:30.249Z,99.90
2019-04-11T23:34:59.605Z,99.90
2019-04-11T23:37:30.565Z,99.90
2019-04-11T23:40:00.620Z,99.90
2019-04-11T23:42:31.072Z,99.90
2019-04-11T23:45:03.309Z,99.90
2019-04-11T23:47:32.701Z,99.90
2019-04-11T23:50:02.604Z,99.90
2019-04-11T23:52:31.959Z,99.90
2019-04-11T23:55:01.428Z,99.90
2019-04-11T23:57:31.303Z,99.90
